Time;durP1;ratioP1;P1;durP2;ratioP2;P2;SDS_P1;SDS_P2;PMS_P1;PMS_P2;Temp;Humidity;BMP_temperature;BMP_pressure;BME280_temperature;BME280_humidity;BME280_pressure;Samples;Min_cycle;Max_cycle;Signal;HPM_P1;HPM_P2
2023/01/27 00:01:50;;;;;;;14.43;8.68;;;4.30;99.90;;;;;;4947741;28;20066;-92
2023/01/27 00:04:16;;;;;;;16.92;8.30;;;4.30;99.90;;;;;;4939587;29;20047;-90
2023/01/27 00:06:42;;;;;;;19.20;16.52;;;4.30;99.90;;;;;;4932375;28;20476;-89
2023/01/27 00:09:08;;;;;;;17.40;8.45;;;4.30;99.90;;;;;;4930831;28;20051;-92
2023/01/27 00:14:18;;;;;;;18.67;9.77;;;4.30;99.90;;;;;;4962485;28;20054;-91
2023/01/27 00:16:43;;;;;;;19.98;9.95;;;4.30;99.90;;;;;;4922539;28;20515;-92
2023/01/27 00:19:09;;;;;;;18.02;8.60;;;4.30;99.90;;;;;;4931166;28;20070;-92
2023/01/27 00:24:37;;;;;;;17.15;10.70;;;4.30;99.90;;;;;;4951854;28;20434;-91
2023/01/27 00:27:04;;;;;;;18.17;8.95;;;4.30;99.90;;;;;;4931478;28;20043;-91
2023/01/27 00:29:30;;;;;;;18.33;9.60;;;4.30;99.90;;;;;;4929234;28;20066;-91
2023/01/27 00:34:40;;;;;;;17.05;8.90;;;4.30;99.90;;;;;;4946048;28;20051;-92
2023/01/27 00:37:06;;;;;;;14.38;7.63;;;4.30;99.90;;;;;;4928406;28;20079;-92
2023/01/27 00:39:32;;;;;;;14.88;8.02;;;4.30;99.90;;;;;;4954130;28;20039;-91
2023/01/27 00:41:58;;;;;;;14.52;9.05;;;4.30;99.90;;;;;;4935575;28;20050;-91
2023/01/27 00:44:23;;;;;;;14.27;6.78;;;4.30;99.90;;;;;;4948400;28;20039;-90
2023/01/27 00:46:49;;;;;;;15.43;8.52;;;4.30;99.90;;;;;;4946776;29;20062;-91
2023/01/27 00:49:17;;;;;;;15.57;8.35;;;4.30;99.90;;;;;;4944776;28;20088;-90
2023/01/27 00:51:43;;;;;;;14.02;7.70;;;4.30;99.90;;;;;;4948528;28;20049;-91
2023/01/27 00:54:08;;;;;;;13.93;7.43;;;4.30;99.90;;;;;;4926983;28;20391;-91
2023/01/27 00:56:34;;;;;;;12.88;7.20;;;4.30;99.90;;;;;;4934794;28;20051;-91
2023/01/27 00:59:00;;;;;;;13.93;8.40;;;4.30;99.90;;;;;;4945726;29;20086;-91
2023/01/27 01:01:26;;;;;;;15.57;8.80;;;4.30;99.90;;;;;;4942665;28;20091;-91
2023/01/27 01:03:52;;;;;;;17.42;14.15;;;4.30;99.90;;;;;;4948829;28;20085;-91
2023/01/27 01:06:18;;;;;;;15.40;7.75;;;4.30;99.90;;;;;;4922848;28;20058;-91
2023/01/27 01:08:44;;;;;;;13.50;6.88;;;4.30;99.90;;;;;;4934034;28;20038;-91
2023/01/27 01:11:12;;;;;;;14.02;8.23;;;4.30;99.90;;;;;;4949906;28;20058;-91
2023/01/27 01:13:40;;;;;;;14.88;6.78;;;4.30;99.90;;;;;;4948867;28;20043;-91
2023/01/27 01:16:12;;;;;;;12.23;6.80;;;4.30;99.90;;;;;;4927326;28;20048;-92
2023/01/27 01:18:38;;;;;;;12.13;5.88;;;4.30;99.90;;;;;;4939070;28;20079;-91
2023/01/27 01:21:08;;;;;;;11.85;6.75;;;4.30;99.90;;;;;;4932094;28;20036;-91
2023/01/27 01:23:38;;;;;;;11.63;7.32;;;4.30;99.90;;;;;;4934313;28;20039;-91
2023/01/27 01:26:03;;;;;;;14.25;6.55;;;4.30;99.90;;;;;;4953317;28;20041;-91
2023/01/27 01:28:29;;;;;;;11.63;6.72;;;4.30;99.90;;;;;;4929049;28;20491;-91
2023/01/27 01:30:55;;;;;;;11.07;5.25;;;4.30;99.90;;;;;;4939051;28;20054;-92
2023/01/27 01:33:21;;;;;;;11.05;5.93;;;4.30;99.90;;;;;;4928913;28;20546;-91
2023/01/27 01:35:46;;;;;;;9.73;5.22;;;4.30;99.90;;;;;;4929525;28;20071;-91
2023/01/27 01:38:12;;;;;;;9.10;4.95;;;4.30;99.90;;;;;;4939481;29;20047;-92
2023/01/27 01:40:42;;;;;;;8.82;4.55;;;4.30;99.90;;;;;;4949625;28;20030;-90
2023/01/27 01:43:16;;;;;;;10.20;4.25;;;4.40;99.90;;;;;;4938389;28;20419;-91
2023/01/27 01:45:50;;;;;;;11.23;5.10;;;4.40;99.90;;;;;;4938390;28;20484;-91
2023/01/27 01:48:31;;;;;;;10.32;5.45;;;4.30;99.90;;;;;;4923325;28;20082;-92
2023/01/27 01:51:13;;;;;;;9.68;5.10;;;4.40;99.90;;;;;;4929365;29;20150;-91
2023/01/27 01:53:51;;;;;;;10.95;5.20;;;4.40;99.90;;;;;;4928625;28;20059;-91
2023/01/27 01:56:21;;;;;;;10.35;4.22;;;4.30;99.90;;;;;;4972683;28;20238;-91
2023/01/27 01:58:47;;;;;;;9.02;4.30;;;4.40;99.90;;;;;;4935349;28;20049;-92
2023/01/27 02:01:15;;;;;;;9.65;4.97;;;4.40;99.90;;;;;;4931455;28;20062;-90
2023/01/27 02:03:44;;;;;;;10.07;7.45;;;4.40;99.90;;;;;;4936336;29;20048;-90
2023/01/27 02:06:10;;;;;;;10.23;4.75;;;4.40;99.90;;;;;;4944245;28;20538;-92
2023/01/27 02:08:43;;;;;;;9.68;4.80;;;4.40;99.90;;;;;;4933252;28;20047;-91
2023/01/27 02:11:10;;;;;;;10.13;5.13;;;4.40;99.90;;;;;;4947359;28;20041;-92
2023/01/27 02:13:36;;;;;;;9.57;5.35;;;4.40;99.90;;;;;;4932670;28;20043;-92
2023/01/27 02:16:02;;;;;;;10.40;4.88;;;4.40;99.90;;;;;;4945853;28;20046;-91
2023/01/27 02:18:28;;;;;;;10.60;6.20;;;4.40;99.90;;;;;;4940020;28;20043;-91
2023/01/27 02:20:54;;;;;;;10.50;5.72;;;4.40;99.90;;;;;;4931239;28;20126;-91
2023/01/27 02:23:41;;;;;;;11.10;6.22;;;4.40;99.90;;;;;;4954950;28;20039;-90
2023/01/27 02:26:16;;;;;;;11.63;5.53;;;4.40;99.90;;;;;;4941069;28;20047;-91
2023/01/27 02:28:41;;;;;;;11.63;5.38;;;4.40;99.90;;;;;;4942934;28;20031;-90
2023/01/27 02:31:07;;;;;;;10.65;5.95;;;4.40;99.90;;;;;;4957087;28;20062;-91
2023/01/27 02:33:33;;;;;;;9.88;5.95;;;4.40;99.90;;;;;;4938237;29;20051;-91
2023/01/27 02:36:09;;;;;;;10.68;5.10;;;4.40;99.90;;;;;;4963677;28;20023;-91
2023/01/27 02:38:47;;;;;;;9.63;5.07;;;4.40;99.90;;;;;;4952326;28;20039;-91
2023/01/27 02:41:38;;;;;;;10.18;4.60;;;4.40;99.90;;;;;;4955161;28;20047;-90
2023/01/27 02:44:04;;;;;;;8.50;4.60;;;4.40;99.90;;;;;;4926455;28;20041;-91
2023/01/27 02:46:29;;;;;;;10.55;5.00;;;4.40;99.90;;;;;;4945550;28;20448;-91
2023/01/27 02:48:55;;;;;;;8.50;4.50;;;4.40;99.90;;;;;;4935323;28;20066;-91
2023/01/27 02:51:21;;;;;;;8.27;3.92;;;4.40;99.90;;;;;;4930349;28;20046;-90
2023/01/27 02:53:47;;;;;;;9.20;4.15;;;4.40;99.90;;;;;;4931282;28;20422;-89
2023/01/27 02:56:13;;;;;;;9.93;4.38;;;4.50;99.90;;;;;;4927628;28;20043;-91
2023/01/27 02:58:38;;;;;;;8.60;3.65;;;4.40;99.90;;;;;;4948136;28;20043;-90
2023/01/27 03:01:04;;;;;;;8.30;3.45;;;4.40;99.90;;;;;;4930038;28;20043;-90
2023/01/27 03:03:30;;;;;;;8.68;3.95;;;4.40;99.90;;;;;;4934188;28;20043;-91
2023/01/27 03:05:56;;;;;;;7.18;2.92;;;4.50;99.90;;;;;;4929498;28;20041;-92
2023/01/27 03:08:21;;;;;;;6.63;2.90;;;4.40;99.90;;;;;;4926294;28;20126;-89
2023/01/27 03:10:52;;;;;;;6.97;2.88;;;4.40;99.90;;;;;;4954446;28;20051;-91
2023/01/27 03:13:26;;;;;;;6.85;3.25;;;4.50;99.90;;;;;;4942104;29;20039;-90
2023/01/27 03:18:37;;;;;;;6.28;2.72;;;4.50;99.90;;;;;;4960816;28;20134;-91
2023/01/27 03:21:05;;;;;;;6.88;2.95;;;4.50;99.90;;;;;;4933918;28;20077;-90
2023/01/27 03:23:34;;;;;;;6.80;3.50;;;4.50;99.90;;;;;;4932143;28;20069;-90
2023/01/27 03:26:01;;;;;;;6.97;2.63;;;4.50;99.90;;;;;;4946689;29;20039;-90
2023/01/27 03:28:27;;;;;;;5.70;2.45;;;4.50;99.90;;;;;;4936861;28;20053;-90
2023/01/27 03:31:04;;;;;;;5.75;2.17;;;4.50;99.90;;;;;;4926255;28;20070;-90
2023/01/27 03:33:30;;;;;;;6.15;2.53;;;4.50;99.90;;;;;;4954970;28;20058;-90
2023/01/27 03:46:54;;;;;;;5.68;3.70;;;4.60;99.90;;;;;;4962400;28;20039;-91
2023/01/27 03:49:19;;;;;;;5.70;2.75;;;4.60;99.90;;;;;;4929700;28;20480;-89
2023/01/27 03:51:45;;;;;;;6.50;2.60;;;4.50;99.90;;;;;;4930612;28;20130;-91
2023/01/27 03:54:11;;;;;;;7.05;2.88;;;4.60;99.90;;;;;;4929941;29;20046;-91
2023/01/27 03:56:36;;;;;;;8.43;3.17;;;4.50;99.90;;;;;;4924257;28;20380;-92
2023/01/27 03:59:02;;;;;;;6.95;3.00;;;4.50;99.90;;;;;;4957553;28;20043;-91
2023/01/27 04:01:28;;;;;;;6.10;2.58;;;4.50;99.90;;;;;;4931377;28;20103;-91
2023/01/27 04:06:59;;;;;;;6.72;3.05;;;4.50;99.90;;;;;;4958450;28;20046;-90
2023/01/27 04:09:28;;;;;;;6.10;2.75;;;4.50;99.90;;;;;;4929052;28;20047;-89
2023/01/27 04:11:55;;;;;;;6.60;3.25;;;4.50;99.90;;;;;;4931588;28;20051;-89
2023/01/27 04:14:26;;;;;;;6.93;3.08;;;4.50;99.90;;;;;;4941678;29;20039;-89
2023/01/27 04:16:54;;;;;;;6.65;2.67;;;4.50;99.90;;;;;;4939500;28;20491;-91
2023/01/27 04:19:19;;;;;;;5.85;2.60;;;4.50;99.90;;;;;;4947858;28;20043;-90
2023/01/27 04:21:46;;;;;;;6.18;2.92;;;4.50;99.90;;;;;;4949905;28;20399;-88
2023/01/27 04:24:15;;;;;;;6.40;2.65;;;4.50;99.90;;;;;;4964088;28;20353;-90
2023/01/27 04:26:42;;;;;;;6.03;2.70;;;4.50;99.90;;;;;;4937984;28;20043;-91
2023/01/27 04:29:08;;;;;;;6.47;2.20;;;4.50;99.90;;;;;;4931414;28;20423;-91
2023/01/27 04:31:34;;;;;;;5.65;2.40;;;4.40;99.90;;;;;;4939435;28;20125;-90
2023/01/27 04:34:00;;;;;;;6.35;2.45;;;4.50;99.90;;;;;;4954686;29;20507;-92
2023/01/27 04:36:25;;;;;;;7.60;2.58;;;4.40;99.90;;;;;;4929936;28;20503;-91
2023/01/27 04:38:51;;;;;;;5.68;2.35;;;4.40;99.90;;;;;;4925420;28;20093;-90
2023/01/27 04:41:16;;;;;;;6.15;2.47;;;4.40;99.90;;;;;;4931730;28;20039;-91
2023/01/27 04:43:42;;;;;;;7.03;2.40;;;4.40;99.90;;;;;;4938950;28;20039;-91
2023/01/27 04:46:08;;;;;;;4.95;2.13;;;4.40;99.90;;;;;;4948002;28;20121;-93
2023/01/27 04:48:34;;;;;;;7.43;2.45;;;4.40;99.90;;;;;;4950531;28;20042;-93
2023/01/27 04:51:00;;;;;;;7.40;2.30;;;4.40;99.90;;;;;;4945355;28;20055;-90
2023/01/27 04:53:25;;;;;;;6.53;2.35;;;4.30;99.90;;;;;;4935030;28;20046;-92
2023/01/27 04:55:51;;;;;;;6.93;2.53;;;4.30;99.90;;;;;;4941000;28;20114;-91
2023/01/27 04:58:17;;;;;;;5.82;2.30;;;4.30;99.90;;;;;;4936712;28;20107;-92
2023/01/27 05:00:45;;;;;;;6.38;2.50;;;4.30;99.90;;;;;;4951012;28;20046;-93
2023/01/27 05:03:11;;;;;;;5.90;3.28;;;4.30;99.90;;;;;;4932435;28;20055;-92
2023/01/27 05:05:38;;;;;;;6.25;2.30;;;4.30;99.90;;;;;;4927688;28;20054;-92
2023/01/27 05:08:04;;;;;;;5.07;1.98;;;4.30;99.90;;;;;;4946579;28;20042;-93
2023/01/27 05:10:31;;;;;;;6.50;2.30;;;4.30;99.90;;;;;;4966904;28;20035;-92
2023/01/27 05:12:57;;;;;;;4.60;2.00;;;4.30;99.90;;;;;;4933722;29;20347;-92
2023/01/27 05:15:22;;;;;;;7.20;2.10;;;4.30;99.90;;;;;;4950845;28;20043;-92
2023/01/27 05:17:48;;;;;;;4.85;1.90;;;4.30;99.90;;;;;;4939102;28;20094;-92
2023/01/27 05:20:14;;;;;;;4.85;2.03;;;4.30;99.90;;;;;;4939821;28;20046;-91
2023/01/27 05:22:41;;;;;;;4.72;2.28;;;4.30;99.90;;;;;;4931514;28;20518;-92
2023/01/27 05:25:07;;;;;;;5.40;2.13;;;4.30;99.90;;;;;;4928595;28;20575;-92
2023/01/27 05:27:33;;;;;;;5.85;2.15;;;4.30;99.90;;;;;;4935161;29;20043;-90
2023/01/27 05:29:59;;;;;;;6.82;2.58;;;4.20;99.90;;;;;;4936838;28;20522;-90
2023/01/27 05:32:25;;;;;;;4.95;2.05;;;4.30;99.90;;;;;;4939934;28;20036;-90
2023/01/27 05:34:50;;;;;;;6.38;2.15;;;4.20;99.90;;;;;;4955591;28;20039;-91
2023/01/27 05:37:16;;;;;;;5.50;2.30;;;4.20;99.90;;;;;;4933994;28;20122;-91
2023/01/27 05:39:41;;;;;;;6.53;2.17;;;4.20;99.90;;;;;;4944231;28;20027;-89
2023/01/27 05:42:07;;;;;;;5.60;2.45;;;4.20;99.90;;;;;;4950978;28;20476;-90
2023/01/27 05:44:33;;;;;;;7.65;2.60;;;4.20;99.90;;;;;;4950712;28;20046;-90
2023/01/27 05:46:58;;;;;;;6.97;2.50;;;4.20;99.90;;;;;;4974540;28;20094;-90
2023/01/27 05:49:24;;;;;;;6.18;2.53;;;4.20;99.90;;;;;;4951657;28;20035;-89
2023/01/27 05:51:50;;;;;;;5.97;2.45;;;4.20;99.90;;;;;;4936006;28;20130;-88
2023/01/27 05:54:15;;;;;;;6.00;2.58;;;4.20;99.90;;;;;;4929675;29;20050;-88
2023/01/27 05:56:41;;;;;;;6.35;2.33;;;4.20;99.90;;;;;;4934740;28;20727;-90
2023/01/27 05:59:07;;;;;;;7.07;2.60;;;4.20;99.90;;;;;;4934017;28;20411;-90
2023/01/27 06:01:34;;;;;;;7.03;3.58;;;4.20;99.90;;;;;;4932828;28;20514;-91
2023/01/27 06:04:00;;;;;;;9.75;3.20;;;4.20;99.90;;;;;;4927492;28;20054;-87
2023/01/27 06:06:27;;;;;;;6.40;2.67;;;4.20;99.90;;;;;;4940640;28;20035;-85
2023/01/27 06:08:53;;;;;;;17.50;12.13;;;4.20;99.90;;;;;;4937373;28;20116;-89
2023/01/27 06:11:19;;;;;;;5.72;2.67;;;4.20;99.90;;;;;;4942546;28;20047;-87
2023/01/27 06:13:46;;;;;;;6.78;2.40;;;4.20;99.90;;;;;;4965395;28;20129;-89
2023/01/27 06:16:16;;;;;;;7.45;3.00;;;4.20;99.90;;;;;;4926956;28;20047;-87
2023/01/27 06:18:42;;;;;;;7.85;2.60;;;4.20;99.90;;;;;;4960371;28;20459;-86
2023/01/27 06:21:10;;;;;;;11.55;8.10;;;4.20;99.90;;;;;;4929535;28;20123;-86
2023/01/27 06:23:36;;;;;;;7.18;2.75;;;4.10;99.90;;;;;;4938715;28;20047;-87
2023/01/27 06:26:16;;;;;;;6.25;2.35;;;4.20;99.90;;;;;;4930535;28;20019;-87
2023/01/27 06:28:42;;;;;;;6.93;2.30;;;4.10;99.90;;;;;;4959945;28;20138;-85
2023/01/27 06:31:14;;;;;;;4.28;2.10;;;4.10;99.90;;;;;;4960808;28;20114;-85
2023/01/27 06:33:41;;;;;;;7.65;2.60;;;4.10;99.90;;;;;;4959810;28;20055;-86
2023/01/27 06:36:12;;;;;;;5.50;2.50;;;4.20;99.90;;;;;;4935590;28;20051;-85
2023/01/27 06:38:38;;;;;;;7.40;3.15;;;4.10;99.90;;;;;;4939041;28;20133;-87
2023/01/27 06:41:04;;;;;;;7.15;4.00;;;4.10;99.90;;;;;;4920820;28;20507;-86
2023/01/27 06:43:30;;;;;;;4.90;2.50;;;4.10;99.90;;;;;;4946994;28;20054;-85
2023/01/27 06:45:58;;;;;;;8.38;2.65;;;4.10;99.90;;;;;;4943258;28;20423;-85
2023/01/27 06:48:24;;;;;;;8.07;2.42;;;4.10;99.90;;;;;;4961083;28;20043;-86
2023/01/27 06:50:54;;;;;;;7.05;2.80;;;4.10;99.90;;;;;;4946765;28;20046;-86
2023/01/27 06:53:20;;;;;;;7.45;3.70;;;4.10;99.90;;;;;;4948938;28;20047;-88
2023/01/27 06:55:46;;;;;;;9.68;3.83;;;4.10;99.90;;;;;;4938753;29;20047;-86
2023/01/27 06:58:14;;;;;;;6.68;2.30;;;4.00;99.90;;;;;;4939021;28;20513;-86
2023/01/27 07:00:40;;;;;;;7.20;2.50;;;4.00;99.90;;;;;;4960622;28;20042;-85
2023/01/27 07:03:08;;;;;;;5.72;2.30;;;3.90;99.90;;;;;;4938811;28;20070;-92
2023/01/27 07:05:33;;;;;;;6.68;2.50;;;3.90;99.90;;;;;;4926066;29;20490;-88
2023/01/27 07:07:59;;;;;;;5.00;2.20;;;3.90;99.90;;;;;;4926614;28;20103;-86
2023/01/27 07:10:26;;;;;;;7.57;2.50;;;3.90;99.90;;;;;;4936751;28;20488;-86
2023/01/27 07:12:51;;;;;;;6.68;2.45;;;3.90;99.90;;;;;;4925152;28;20071;-85
2023/01/27 07:15:17;;;;;;;7.20;2.30;;;3.90;99.90;;;;;;4960100;28;20524;-86
2023/01/27 07:17:43;;;;;;;8.88;3.15;;;3.90;99.90;;;;;;4939102;28;20086;-87
2023/01/27 07:20:11;;;;;;;7.80;3.97;;;3.90;99.90;;;;;;4934582;28;20047;-84
2023/01/27 07:22:37;;;;;;;6.20;2.58;;;3.90;99.90;;;;;;4960979;28;20045;-87
2023/01/27 07:25:04;;;;;;;6.97;2.28;;;3.90;99.90;;;;;;4969172;28;20133;-94
2023/01/27 07:27:30;;;;;;;9.75;2.75;;;3.90;99.90;;;;;;4921322;28;20047;-91
2023/01/27 07:29:55;;;;;;;20.25;11.63;;;4.00;99.90;;;;;;4937210;28;20060;-89
2023/01/27 07:32:21;;;;;;;8.43;3.08;;;3.90;99.90;;;;;;4927678;28;20040;-90
2023/01/27 07:34:47;;;;;;;8.35;2.90;;;4.00;99.90;;;;;;4919370;28;20050;-89
2023/01/27 07:37:13;;;;;;;7.70;2.83;;;4.00;99.90;;;;;;4944711;28;20034;-89
2023/01/27 07:39:39;;;;;;;11.13;3.92;;;4.00;99.90;;;;;;4930407;28;20062;-89
2023/01/27 07:42:05;;;;;;;7.07;2.75;;;4.00;99.90;;;;;;4942035;28;20035;-90
2023/01/27 07:44:31;;;;;;;7.13;2.83;;;4.00;99.90;;;;;;4940951;28;20047;-91
2023/01/27 07:46:57;;;;;;;6.82;3.03;;;4.00;99.90;;;;;;4951299;28;20042;-90
2023/01/27 07:49:23;;;;;;;7.22;2.53;;;4.00;99.90;;;;;;4928348;29;20047;-91
2023/01/27 07:51:49;;;;;;;7.15;3.20;;;4.00;99.90;;;;;;4937934;28;20042;-91
2023/01/27 07:54:15;;;;;;;6.90;2.88;;;4.00;99.90;;;;;;4947598;28;20039;-89
2023/01/27 07:56:40;;;;;;;6.90;2.80;;;4.10;99.90;;;;;;4935624;28;20129;-89
2023/01/27 07:59:06;;;;;;;7.38;2.80;;;4.10;99.90;;;;;;4952154;28;20050;-88
2023/01/27 08:01:32;;;;;;;6.82;2.97;;;4.10;99.90;;;;;;4952690;28;20065;-90
2023/01/27 08:03:58;;;;;;;8.43;2.83;;;4.10;99.90;;;;;;4948765;28;20039;-91
2023/01/27 08:06:24;;;;;;;7.63;2.60;;;4.10;99.90;;;;;;4936610;28;20099;-90
2023/01/27 08:08:49;;;;;;;6.47;2.63;;;4.10;99.90;;;;;;4940672;28;20051;-92
2023/01/27 08:11:15;;;;;;;6.93;2.47;;;4.10;99.90;;;;;;4938977;28;20047;-91
2023/01/27 08:13:41;;;;;;;8.73;2.83;;;4.20;99.90;;;;;;4941597;28;20081;-88
2023/01/27 08:16:11;;;;;;;8.88;2.60;;;4.20;99.90;;;;;;4941017;28;20137;-92
2023/01/27 08:18:36;;;;;;;7.45;2.60;;;4.20;99.90;;;;;;4931440;28;20048;-91
2023/01/27 08:21:05;;;;;;;5.53;2.70;;;4.20;99.90;;;;;;4937350;28;20035;-91
2023/01/27 08:23:31;;;;;;;9.13;2.92;;;4.20;99.90;;;;;;4953228;28;20046;-92
2023/01/27 08:26:00;;;;;;;6.53;3.83;;;4.20;99.90;;;;;;4932728;28;20052;-93
2023/01/27 08:28:28;;;;;;;11.57;2.88;;;4.30;99.90;;;;;;4954257;28;20050;-90
2023/01/27 08:30:53;;;;;;;5.97;2.70;;;4.30;99.90;;;;;;4944997;28;20167;-89
2023/01/27 08:33:21;;;;;;;7.25;2.80;;;4.30;99.90;;;;;;4949255;28;20047;-89
2023/01/27 08:35:48;;;;;;;6.63;3.10;;;4.30;99.90;;;;;;4939934;28;20043;-89
2023/01/27 08:38:16;;;;;;;8.02;3.10;;;4.30;99.90;;;;;;4939716;28;20455;-91
2023/01/27 08:40:43;;;;;;;8.43;3.08;;;4.30;99.90;;;;;;4917311;29;20047;-90
2023/01/27 08:43:09;;;;;;;7.05;3.60;;;4.30;99.90;;;;;;4937174;28;20058;-89
2023/01/27 08:45:35;;;;;;;7.03;2.92;;;4.30;99.90;;;;;;4944207;28;20396;-89
2023/01/27 08:48:02;;;;;;;8.45;3.97;;;4.40;99.90;;;;;;4924886;28;20046;-88
2023/01/27 08:50:29;;;;;;;9.00;3.42;;;4.40;99.90;;;;;;4944776;28;20031;-88
2023/01/27 08:52:57;;;;;;;8.02;3.67;;;4.40;99.90;;;;;;4951566;29;20051;-88
2023/01/27 08:55:28;;;;;;;8.05;3.53;;;4.40;99.90;;;;;;4958685;28;20092;-88
2023/01/27 08:57:54;;;;;;;7.20;3.42;;;4.50;99.90;;;;;;4948566;28;20058;-89
2023/01/27 09:00:20;;;;;;;9.02;6.13;;;4.50;99.90;;;;;;4983415;28;20087;-88
2023/01/27 09:02:46;;;;;;;8.25;3.97;;;4.50;99.90;;;;;;4966510;28;20149;-89
2023/01/27 09:05:12;;;;;;;10.55;4.38;;;4.60;99.90;;;;;;4957368;28;20475;-90
2023/01/27 09:07:38;;;;;;;9.18;3.92;;;4.60;99.90;;;;;;4952578;28;20103;-87
2023/01/27 09:10:05;;;;;;;9.13;4.20;;;4.70;99.90;;;;;;4948152;28;20051;-92
2023/01/27 09:12:31;;;;;;;8.70;4.00;;;4.70;99.90;;;;;;4936341;28;20159;-88
2023/01/27 09:14:57;;;;;;;8.68;5.13;;;4.70;99.90;;;;;;4942980;28;20382;-90
2023/01/27 09:17:23;;;;;;;10.88;8.05;;;4.70;99.90;;;;;;4943499;28;20349;-90
2023/01/27 09:19:50;;;;;;;11.18;4.65;;;4.80;99.90;;;;;;4930028;28;20039;-88
2023/01/27 09:22:16;;;;;;;9.07;4.60;;;4.80;99.90;;;;;;4925378;29;20045;-89
2023/01/27 09:24:41;;;;;;;10.57;7.95;;;4.80;99.90;;;;;;4951332;28;20483;-89
2023/01/27 09:27:07;;;;;;;9.05;5.00;;;4.90;99.90;;;;;;4953138;28;20451;-91
2023/01/27 09:29:33;;;;;;;9.32;4.63;;;4.90;99.90;;;;;;4950402;28;20042;-91
2023/01/27 09:31:58;;;;;;;10.45;5.05;;;4.90;99.90;;;;;;4937006;29;20043;-91
2023/01/27 09:34:24;;;;;;;9.90;4.97;;;4.90;99.90;;;;;;4938545;28;20050;-89
2023/01/27 09:36:55;;;;;;;7.97;4.93;;;4.90;99.90;;;;;;4942098;28;20111;-90
2023/01/27 09:39:21;;;;;;;9.20;3.85;;;4.90;99.90;;;;;;4943267;28;20134;-90
2023/01/27 09:42:13;;;;;;;8.95;4.35;;;5.00;99.90;;;;;;4924930;29;20043;-90
2023/01/27 09:44:45;;;;;;;10.40;4.35;;;5.00;99.90;;;;;;4922338;29;20039;-88
2023/01/27 09:47:22;;;;;;;9.15;4.75;;;5.00;99.90;;;;;;4928869;28;20047;-90
2023/01/27 09:50:29;;;;;;;9.07;6.55;;;5.00;99.90;;;;;;4941712;28;20118;-91
2023/01/27 09:53:37;;;;;;;9.40;4.00;;;5.10;99.90;;;;;;4944289;28;20094;-91
2023/01/27 09:56:26;;;;;;;7.80;3.60;;;5.10;99.90;;;;;;4873146;29;20064;-96
2023/01/27 09:59:17;;;;;;;6.75;2.97;;;5.10;99.90;;;;;;4864937;29;20045;-91
2023/01/27 10:02:09;;;;;;;6.88;2.92;;;5.10;99.90;;;;;;4876056;29;20128;-91
2023/01/27 10:05:04;;;;;;;6.50;2.88;;;5.10;99.90;;;;;;4887581;29;20059;-93
2023/01/27 10:07:46;;;;;;;6.97;3.53;;;5.10;99.90;;;;;;4889379;29;20074;-91
2023/01/27 10:10:39;;;;;;;7.82;3.53;;;5.10;99.90;;;;;;4860296;29;20309;-88
2023/01/27 10:13:30;;;;;;;8.13;3.03;;;5.00;99.90;;;;;;4856586;29;20048;-90
2023/01/27 10:16:37;;;;;;;8.32;5.07;;;5.00;99.90;;;;;;4884313;29;20113;-89
2023/01/27 10:19:19;;;;;;;6.65;3.22;;;5.00;99.90;;;;;;4851639;29;20112;-90
2023/01/27 10:21:51;;;;;;;7.47;3.55;;;5.00;99.90;;;;;;4872090;29;20052;-91
2023/01/27 10:24:37;;;;;;;6.32;3.22;;;5.00;99.90;;;;;;5110388;27;20449;-89
2023/01/27 10:27:18;;;;;;;7.78;4.50;;;5.00;99.90;;;;;;5086260;28;20062;-88
2023/01/27 10:29:45;;;;;;;8.00;3.83;;;5.00;99.90;;;;;;5105025;28;20089;-89
2023/01/27 10:32:36;;;;;;;8.95;3.00;;;4.90;99.90;;;;;;5104755;28;20043;-90
2023/01/27 10:35:01;;;;;;;5.93;2.50;;;4.90;99.90;;;;;;5106865;28;20054;-89
2023/01/27 10:37:33;;;;;;;6.47;2.72;;;4.80;99.90;;;;;;5103963;28;20262;-90
2023/01/27 10:40:10;;;;;;;6.60;3.90;;;4.80;99.90;;;;;;5108968;28;20055;-93
2023/01/27 10:42:52;;;;;;;8.88;2.63;;;4.80;99.90;;;;;;5146248;27;20043;-95
2023/01/27 10:45:23;;;;;;;7.97;2.55;;;4.80;99.90;;;;;;5152626;22;20058;-88
2023/01/27 10:48:09;;;;;;;;;;;4.80;99.90;;;;;;5030265;28;20055;-93
2023/01/27 10:50:39;;;;;;;6.72;2.58;;;4.70;99.90;;;;;;5004818;28;19927;-89
2023/01/27 10:53:24;;;;;;;5.07;2.03;;;4.70;99.90;;;;;;5027389;28;20133;-87
2023/01/27 10:56:00;;;;;;;6.45;2.63;;;4.70;99.90;;;;;;5011057;28;20042;-89
2023/01/27 10:59:07;;;;;;;7.55;2.80;;;4.70;99.90;;;;;;5022638;28;20077;-89
2023/01/27 11:01:43;;;;;;;5.72;2.42;;;4.70;99.90;;;;;;5026202;28;20069;-92
2023/01/27 11:04:12;;;;;;;7.55;3.70;;;4.70;99.90;;;;;;5034912;28;20038;-89
2023/01/27 11:06:40;;;;;;;6.70;2.90;;;4.70;99.90;;;;;;5012844;28;20038;-89
2023/01/27 11:09:25;;;;;;;6.00;2.60;;;4.70;99.90;;;;;;5000841;28;20053;-87
2023/01/27 11:11:54;;;;;;;6.78;4.07;;;4.70;99.90;;;;;;5006969;28;20034;-87
2023/01/27 11:14:27;;;;;;;5.70;2.60;;;4.70;99.90;;;;;;5005507;28;20050;-88
2023/01/27 11:17:23;;;;;;;5.85;2.88;;;4.70;99.90;;;;;;5024935;28;20069;-88
2023/01/27 11:20:01;;;;;;;6.88;2.50;;;4.70;99.90;;;;;;5015067;28;20050;-87
2023/01/27 11:22:35;;;;;;;5.25;2.40;;;4.70;99.90;;;;;;5021206;28;20045;-87
2023/01/27 11:25:22;;;;;;;6.18;2.42;;;4.70;99.90;;;;;;5004241;28;20041;-87
2023/01/27 11:28:09;;;;;;;6.50;2.70;;;4.70;99.90;;;;;;5023849;28;20045;-88
2023/01/27 11:31:00;;;;;;;5.75;2.65;;;4.70;99.90;;;;;;5033174;28;20057;-90
2023/01/27 11:33:43;;;;;;;6.22;2.50;;;4.70;99.90;;;;;;5023497;28;20056;-91
2023/01/27 11:36:08;;;;;;;7.72;4.50;;;4.70;99.90;;;;;;5011367;28;20060;-89
2023/01/27 11:38:34;;;;;;;7.63;2.92;;;4.80;99.90;;;;;;4992280;28;20046;-88
2023/01/27 11:41:00;;;;;;;8.90;4.28;;;4.80;99.90;;;;;;5011216;28;20414;-88
2023/01/27 11:43:27;;;;;;;5.97;2.83;;;4.80;99.90;;;;;;5009768;28;20049;-87
2023/01/27 11:46:05;;;;;;;5.78;2.50;;;4.80;99.90;;;;;;5011738;28;20058;-90
2023/01/27 11:48:41;;;;;;;6.38;2.45;;;4.80;99.90;;;;;;5012236;28;20073;-87
2023/01/27 11:51:21;;;;;;;6.32;2.47;;;4.90;99.90;;;;;;5012520;28;20593;-88
2023/01/27 11:53:56;;;;;;;5.43;2.22;;;4.90;99.90;;;;;;5008258;28;20172;-87
2023/01/27 11:56:23;;;;;;;4.40;1.75;;;4.90;99.90;;;;;;5013049;28;20049;-88
2023/01/27 11:59:00;;;;;;;5.30;2.88;;;4.90;99.90;;;;;;5014039;28;20087;-89
2023/01/27 12:01:43;;;;;;;4.68;2.15;;;4.90;99.90;;;;;;4999535;28;20038;-87
2023/01/27 12:04:12;;;;;;;4.90;2.58;;;5.00;99.90;;;;;;5017964;28;20046;-87
2023/01/27 12:06:47;;;;;;;3.42;1.85;;;5.00;99.90;;;;;;4999637;28;20037;-87
2023/01/27 12:09:35;;;;;;;5.13;1.83;;;5.00;99.90;;;;;;5018113;28;20046;-88
2023/01/27 12:12:12;;;;;;;5.88;2.42;;;5.00;99.90;;;;;;5001963;28;20183;-90
2023/01/27 12:14:39;;;;;;;4.22;2.60;;;5.00;99.90;;;;;;5023471;28;20389;-88
2023/01/27 12:17:07;;;;;;;5.00;3.00;;;5.10;99.90;;;;;;5028798;28;20034;-90
2023/01/27 12:19:40;;;;;;;4.50;2.00;;;5.10;99.90;;;;;;5002596;28;20149;-88
2023/01/27 12:22:12;;;;;;;5.20;2.20;;;5.10;99.90;;;;;;5013766;28;20395;-89
2023/01/27 12:24:44;;;;;;;5.50;2.92;;;5.10;99.90;;;;;;5008502;28;20041;-89
2023/01/27 12:27:21;;;;;;;5.72;2.05;;;5.10;99.90;;;;;;4995962;28;20103;-89
2023/01/27 12:29:54;;;;;;;4.78;2.00;;;5.10;99.90;;;;;;5010786;28;20033;-89
2023/01/27 12:32:42;;;;;;;4.63;1.80;;;5.10;99.90;;;;;;5011320;28;20058;-90
2023/01/27 12:35:19;;;;;;;4.38;1.63;;;5.10;99.90;;;;;;4994933;28;20437;-89
2023/01/27 12:37:47;;;;;;;5.32;3.15;;;5.10;99.90;;;;;;5011056;28;20042;-89
2023/01/27 12:40:20;;;;;;;6.70;3.30;;;5.10;99.90;;;;;;5014055;28;20045;-93
2023/01/27 12:43:02;;;;;;;4.93;2.28;;;5.10;99.90;;;;;;5014513;28;20034;-89
2023/01/27 12:45:34;;;;;;;4.95;2.92;;;5.10;99.90;;;;;;4994786;28;20061;-89
2023/01/27 12:48:01;;;;;;;5.43;1.90;;;5.10;99.90;;;;;;4995467;28;20116;-94
2023/01/27 12:50:33;;;;;;;4.47;2.08;;;5.10;99.90;;;;;;4993565;28;20549;-88
2023/01/27 12:53:11;;;;;;;3.20;1.83;;;5.10;99.90;;;;;;4995920;28;20050;-90
2023/01/27 12:56:02;;;;;;;5.15;1.73;;;5.10;99.90;;;;;;5019760;28;20045;-88
2023/01/27 12:58:59;;;;;;;4.35;1.67;;;5.10;99.90;;;;;;5014097;28;20069;-89
2023/01/27 13:01:29;;;;;;;3.00;1.35;;;5.10;99.90;;;;;;5018441;28;20156;-89
2023/01/27 13:04:21;;;;;;;3.75;1.45;;;5.10;99.90;;;;;;5012562;28;20049;-89
2023/01/27 13:07:11;;;;;;;5.10;2.53;;;5.10;99.90;;;;;;4990684;28;20045;-89
2023/01/27 13:10:15;;;;;;;4.28;2.10;;;5.10;99.90;;;;;;5007596;28;20052;-89
2023/01/27 13:13:14;;;;;;;4.65;2.20;;;5.00;99.90;;;;;;4983876;28;20061;-89
2023/01/27 13:15:51;;;;;;;5.00;2.28;;;5.00;99.90;;;;;;5011849;28;20058;-90
2023/01/27 13:18:22;;;;;;;4.50;2.15;;;5.00;99.90;;;;;;4994860;28;20049;-89
2023/01/27 13:21:16;;;;;;;4.47;2.25;;;5.00;99.90;;;;;;5010938;28;20393;-89
2023/01/27 13:23:42;;;;;;;5.07;2.90;;;5.00;99.90;;;;;;5010317;28;20045;-89
2023/01/27 13:26:08;;;;;;;3.70;1.75;;;5.00;99.90;;;;;;5010875;28;20390;-90
2023/01/27 13:28:57;;;;;;;3.97;2.00;;;5.00;99.90;;;;;;4990587;28;20044;-90
2023/01/27 13:31:53;;;;;;;4.15;1.73;;;5.00;99.90;;;;;;4993454;28;20046;-90
2023/01/27 13:34:34;;;;;;;4.93;2.08;;;5.00;99.90;;;;;;4989590;28;20061;-90
2023/01/27 13:37:09;;;;;;;4.57;1.65;;;5.00;99.90;;;;;;5008004;28;20136;-90
2023/01/27 13:39:44;;;;;;;3.67;1.77;;;4.90;99.90;;;;;;4995231;28;20049;-91